sensor_id;sensor_type;location;lat;lon;timestamp;pressure;altitude;pressure_sealevel;temperature;humidity
16016;BME280;8112;53.592;10.184;2023-04-19T00:01:11;102833.34;;;4.99;100.00
16016;BME280;8112;53.592;10.184;2023-04-19T00:06:12;102828.09;;;5.03;100.00
16016;BME280;8112;53.592;10.184;2023-04-19T00:11:16;102822.88;;;4.93;100.00
16016;BME280;8112;53.592;10.184;2023-04-19T00:16:18;102822.91;;;4.95;100.00
16016;BME280;8112;53.592;10.184;2023-04-19T00:21:20;102815.94;;;4.88;100.00
16016;BME280;8112;53.592;10.184;2023-04-19T00:26:23;102817.66;;;4.90;100.00
16016;BME280;8112;53.592;10.184;2023-04-19T00:31:26;102808.06;;;4.97;100.00
16016;BME280;8112;53.592;10.184;2023-04-19T00:36:27;102809.84;;;4.96;100.00
16016;BME280;8112;53.592;10.184;2023-04-19T00:41:31;102808.97;;;4.88;100.00
16016;BME280;8112;53.592;10.184;2023-04-19T00:46:33;102805.47;;;4.89;100.00
16016;BME280;8112;53.592;10.184;2023-04-19T00:51:35;102806.38;;;4.77;100.00
16016;BME280;8112;53.592;10.184;2023-04-19T00:56:39;102810.72;;;4.80;100.00
16016;BME280;8112;53.592;10.184;2023-04-19T01:01:41;102802.00;;;4.75;100.00
16016;BME280;8112;53.592;10.184;2023-04-19T01:06:42;102804.66;;;4.70;100.00
16016;BME280;8112;53.592;10.184;2023-04-19T01:11:46;102802.00;;;4.75;100.00
16016;BME280;8112;53.592;10.184;2023-04-19T01:16:48;102807.22;;;4.75;100.00
16016;BME280;8112;53.592;10.184;2023-04-19T01:21:51;102805.47;;;4.86;100.00
16016;BME280;8112;53.592;10.184;2023-04-19T01:26:54;102808.09;;;4.83;100.00
16016;BME280;8112;53.592;10.184;2023-04-19T01:31:56;102811.59;;;4.76;100.00
16016;BME280;8112;53.592;10.184;2023-04-19T01:37:00;102814.22;;;4.79;100.00
16016;BME280;8112;53.592;10.184;2023-04-19T01:42:03;102801.16;;;4.71;100.00
16016;BME280;8112;53.592;10.184;2023-04-19T01:47:05;102806.38;;;4.63;100.00
16016;BME280;8112;53.592;10.184;2023-04-19T01:52:07;102798.56;;;4.63;100.00
16016;BME280;8112;53.592;10.184;2023-04-19T01:57:10;102798.56;;;4.51;100.00
16016;BME280;8112;53.592;10.184;2023-04-19T02:02:12;102790.72;;;4.55;100.00
16016;BME280;8112;53.592;10.184;2023-04-19T02:07:13;102781.16;;;4.51;100.00
16016;BME280;8112;53.592;10.184;2023-04-19T02:12:16;102793.34;;;4.48;100.00
16016;BME280;8112;53.592;10.184;2023-04-19T02:17:18;102791.59;;;4.40;100.00
16016;BME280;8112;53.592;10.184;2023-04-19T02:22:20;102790.72;;;4.43;100.00
16016;BME280;8112;53.592;10.184;2023-04-19T02:27:23;102788.97;;;4.37;100.00
16016;BME280;8112;53.592;10.184;2023-04-19T02:32:25;102790.72;;;4.35;100.00
16016;BME280;8112;53.592;10.184;2023-04-19T02:37:26;102785.50;;;4.26;100.00
16016;BME280;8112;53.592;10.184;2023-04-19T02:42:32;102788.97;;;4.28;100.00
16016;BME280;8112;53.592;10.184;2023-04-19T02:47:33;102785.50;;;4.34;100.00
16016;BME280;8112;53.592;10.184;2023-04-19T02:52:35;102782.03;;;4.32;100.00
16016;BME280;8112;53.592;10.184;2023-04-19T02:57:38;102782.88;;;4.29;100.00
16016;BME280;8112;53.592;10.184;2023-04-19T03:02:43;102777.66;;;4.20;100.00
16016;BME280;8112;53.592;10.184;2023-04-19T03:07:45;102780.28;;;4.21;100.00
16016;BME280;8112;53.592;10.184;2023-04-19T03:12:49;102775.94;;;4.22;100.00
16016;BME280;8112;53.592;10.184;2023-04-19T03:17:51;102772.47;;;4.23;100.00
16016;BME280;8112;53.592;10.184;2023-04-19T03:22:55;102777.66;;;4.20;100.00
16016;BME280;8112;53.592;10.184;2023-04-19T03:27:59;102765.47;;;4.16;100.00
16016;BME280;8112;53.592;10.184;2023-04-19T03:33:21;102761.13;;;4.14;100.00
16016;BME280;8112;53.592;10.184;2023-04-19T03:38:23;102759.38;;;4.10;100.00
16016;BME280;8112;53.592;10.184;2023-04-19T03:43:29;102749.81;;;4.03;100.00
16016;BME280;8112;53.592;10.184;2023-04-19T03:48:31;102762.88;;;4.03;100.00
16016;BME280;8112;53.592;10.184;2023-04-19T03:53:35;102749.81;;;4.03;100.00
16016;BME280;8112;53.592;10.184;2023-04-19T03:58:38;102748.09;;;4.05;100.00
16016;BME280;8112;53.592;10.184;2023-04-19T04:03:42;102747.19;;;4.08;100.00
16016;BME280;8112;53.592;10.184;2023-04-19T04:08:43;102750.69;;;4.04;100.00
16016;BME280;8112;53.592;10.184;2023-04-19T04:13:47;102740.25;;;4.07;100.00
16016;BME280;8112;53.592;10.184;2023-04-19T04:18:57;102743.72;;;4.03;100.00
16016;BME280;8112;53.592;10.184;2023-04-19T04:24:00;102737.66;;;3.94;100.00
16016;BME280;8112;53.592;10.184;2023-04-19T04:29:12;102735.88;;;3.93;100.00
16016;BME280;8112;53.592;10.184;2023-04-19T04:34:17;102741.97;;;4.11;100.00
16016;BME280;8112;53.592;10.184;2023-04-19T04:39:25;102736.75;;;4.30;100.00
16016;BME280;8112;53.592;10.184;2023-04-19T04:44:28;102737.63;;;4.52;100.00
16016;BME280;8112;53.592;10.184;2023-04-19T04:49:30;102734.13;;;4.62;100.00
16016;BME280;8112;53.592;10.184;2023-04-19T04:54:32;102735.81;;;4.87;100.00
16016;BME280;8112;53.592;10.184;2023-04-19T04:59:36;102736.66;;;4.93;100.00
16016;BME280;8112;53.592;10.184;2023-04-19T05:04:38;102730.56;;;4.97;100.00
16016;BME280;8112;53.592;10.184;2023-04-19T05:09:40;102730.47;;;5.19;100.00
16016;BME280;8112;53.592;10.184;2023-04-19T05:14:43;102726.94;;;5.30;100.00
16016;BME280;8112;53.592;10.184;2023-04-19T05:19:45;102728.63;;;5.43;100.00
16016;BME280;8112;53.592;10.184;2023-04-19T05:24:47;102720.69;;;5.57;100.00
16016;BME280;8112;53.592;10.184;2023-04-19T05:29:52;102718.56;;;6.17;100.00
16016;BME280;8112;53.592;10.184;2023-04-19T05:34:55;102707.69;;;7.32;100.00
16016;BME280;8112;53.592;10.184;2023-04-19T05:39:56;102702.88;;;8.19;100.00
16016;BME280;8112;53.592;10.184;2023-04-19T05:45:00;102706.38;;;8.69;100.00
16016;BME280;8112;53.592;10.184;2023-04-19T05:50:02;102699.53;;;8.10;100.00
16016;BME280;8112;53.592;10.184;2023-04-19T05:55:08;102695.88;;;8.19;100.00
16016;BME280;8112;53.592;10.184;2023-04-19T06:00:17;102699.28;;;8.24;100.00
16016;BME280;8112;53.592;10.184;2023-04-19T06:05:29;102690.22;;;7.89;100.00
16016;BME280;8112;53.592;10.184;2023-04-19T06:10:31;102693.88;;;7.80;100.00
16016;BME280;8112;53.592;10.184;2023-04-19T06:15:34;102691.91;;;7.95;100.00
16016;BME280;8112;53.592;10.184;2023-04-19T06:20:36;102696.25;;;7.96;100.00
16016;BME280;8112;53.592;10.184;2023-04-19T06:25:37;102696.91;;;8.10;100.00
16016;BME280;8112;53.592;10.184;2023-04-19T06:30:40;102701.78;;;8.31;100.00
16016;BME280;8112;53.592;10.184;2023-04-19T06:35:42;102695.47;;;8.43;100.00
16016;BME280;8112;53.592;10.184;2023-04-19T06:40:44;102686.31;;;8.65;100.00
16016;BME280;8112;53.592;10.184;2023-04-19T06:45:47;102693.41;;;8.60;100.00
16016;BME280;8112;53.592;10.184;2023-04-19T06:50:48;102677.38;;;8.73;100.00
16016;BME280;8112;53.592;10.184;2023-04-19T06:55:56;102681.38;;;8.92;100.00
16016;BME280;8112;53.592;10.184;2023-04-19T07:01:03;102679.41;;;9.04;100.00
16016;BME280;8112;53.592;10.184;2023-04-19T07:06:05;102682.59;;;9.18;100.00
16016;BME280;8112;53.592;10.184;2023-04-19T07:11:07;102687.94;;;9.15;100.00
16016;BME280;8112;53.592;10.184;2023-04-19T07:16:10;102679.63;;;9.34;100.00
16016;BME280;8112;53.592;10.184;2023-04-19T07:21:14;102667.72;;;9.55;100.00
16016;BME280;8112;53.592;10.184;2023-04-19T07:26:15;102663.91;;;9.68;100.00
16016;BME280;8112;53.592;10.184;2023-04-19T07:31:18;102667.81;;;9.88;100.00
16016;BME280;8112;53.592;10.184;2023-04-19T07:36:20;102665.31;;;10.17;100.00
16016;BME280;8112;53.592;10.184;2023-04-19T07:41:22;102666.22;;;10.16;100.00
16016;BME280;8112;53.592;10.184;2023-04-19T07:46:25;102679.34;;;10.52;100.00
16016;BME280;8112;53.592;10.184;2023-04-19T07:51:27;102650.53;;;10.77;100.00
16016;BME280;8112;53.592;10.184;2023-04-19T07:56:28;102661.66;;;10.87;100.00
16016;BME280;8112;53.592;10.184;2023-04-19T08:01:31;102657.41;;;10.83;100.00
16016;BME280;8112;53.592;10.184;2023-04-19T08:06:33;102656.75;;;11.05;100.00
16016;BME280;8112;53.592;10.184;2023-04-19T08:11:37;102663.72;;;11.36;100.00
16016;BME280;8112;53.592;10.184;2023-04-19T08:16:40;102646.69;;;11.73;100.00
16016;BME280;8112;53.592;10.184;2023-04-19T08:21:41;102660.19;;;11.64;100.00
16016;BME280;8112;53.592;10.184;2023-04-19T08:26:43;102643.22;;;11.44;99.29
16016;BME280;8112;53.592;10.184;2023-04-19T08:31:54;102645.16;;;11.66;100.00
16016;BME280;8112;53.592;10.184;2023-04-19T08:36:55;102644.75;;;12.05;98.62
16016;BME280;8112;53.592;10.184;2023-04-19T08:42:02;102633.56;;;11.97;96.55
16016;BME280;8112;53.592;10.184;2023-04-19T08:47:07;102626.44;;;11.99;90.58
16016;BME280;8112;53.592;10.184;2023-04-19T08:52:11;102623.09;;;11.94;89.17
16016;BME280;8112;53.592;10.184;2023-04-19T08:57:14;102613.09;;;12.29;87.44
16016;BME280;8112;53.592;10.184;2023-04-19T09:02:17;102614.03;;;12.52;80.75
16016;BME280;8112;53.592;10.184;2023-04-19T09:07:22;102614.59;;;12.36;77.99
16016;BME280;8112;53.592;10.184;2023-04-19T09:12:24;102621.72;;;12.34;77.56
16016;BME280;8112;53.592;10.184;2023-04-19T09:17:28;102605.09;;;12.05;74.90
16016;BME280;8112;53.592;10.184;2023-04-19T09:22:29;102597.81;;;12.37;71.09
16016;BME280;8112;53.592;10.184;2023-04-19T09:27:33;102592.75;;;12.55;67.63
16016;BME280;8112;53.592;10.184;2023-04-19T09:32:46;102575.84;;;12.83;68.97
16016;BME280;8112;53.592;10.184;2023-04-19T09:37:58;102578.75;;;13.42;68.20
16016;BME280;8112;53.592;10.184;2023-04-19T09:43:01;102575.94;;;12.80;67.35
16016;BME280;8112;53.592;10.184;2023-04-19T09:48:06;102569.16;;;13.39;63.59
16016;BME280;8112;53.592;10.184;2023-04-19T09:53:08;102556.69;;;12.98;54.98
16016;BME280;8112;53.592;10.184;2023-04-19T09:58:11;102541.38;;;13.07;58.15
16016;BME280;8112;53.592;10.184;2023-04-19T10:03:15;102549.03;;;13.13;58.15
16016;BME280;8112;53.592;10.184;2023-04-19T10:08:18;102538.75;;;13.50;55.61
16016;BME280;8112;53.592;10.184;2023-04-19T10:13:20;102535.91;;;13.54;52.80
16016;BME280;8112;53.592;10.184;2023-04-19T10:18:24;102521.84;;;13.52;52.73
16016;BME280;8112;53.592;10.184;2023-04-19T10:23:27;102533.47;;;13.28;50.82
16016;BME280;8112;53.592;10.184;2023-04-19T10:28:29;102514.88;;;13.29;47.12
16016;BME280;8112;53.592;10.184;2023-04-19T10:33:34;102503.53;;;13.48;51.59
16016;BME280;8112;53.592;10.184;2023-04-19T10:38:38;102489.88;;;14.16;47.76
16016;BME280;8112;53.592;10.184;2023-04-19T10:43:43;102499.88;;;14.30;44.32
16016;BME280;8112;53.592;10.184;2023-04-19T10:48:55;102489.88;;;14.74;46.28
16016;BME280;8112;53.592;10.184;2023-04-19T10:53:58;102487.13;;;15.12;41.85
16016;BME280;8112;53.592;10.184;2023-04-19T10:59:16;102491.50;;;15.13;40.52
16016;BME280;8112;53.592;10.184;2023-04-19T11:04:58;102480.97;;;15.80;40.22
16016;BME280;8112;53.592;10.184;2023-04-19T11:10:00;102462.69;;;15.74;42.42
16016;BME280;8112;53.592;10.184;2023-04-19T11:15:04;102459.41;;;16.35;38.92
16016;BME280;8112;53.592;10.184;2023-04-19T11:20:10;102458.22;;;16.57;40.63
16016;BME280;8112;53.592;10.184;2023-04-19T11:25:15;102456.53;;;17.02;41.43
16016;BME280;8112;53.592;10.184;2023-04-19T11:30:19;102450.06;;;16.60;38.53
16016;BME280;8112;53.592;10.184;2023-04-19T11:35:24;102456.25;;;17.07;40.04
16016;BME280;8112;53.592;10.184;2023-04-19T11:40:26;102449.94;;;17.38;39.97
16016;BME280;8112;53.592;10.184;2023-04-19T11:45:29;102461.28;;;17.71;39.30
16016;BME280;8112;53.592;10.184;2023-04-19T11:50:37;102453.06;;;17.31;35.81
16016;BME280;8112;53.592;10.184;2023-04-19T11:55:41;102434.97;;;16.28;34.57
16016;BME280;8112;53.592;10.184;2023-04-19T12:00:45;102437.56;;;16.14;35.80
16016;BME280;8112;53.592;10.184;2023-04-19T12:05:53;102430.59;;;15.95;37.74
16016;BME280;8112;53.592;10.184;2023-04-19T12:10:55;102430.75;;;16.24;34.29
16016;BME280;8112;53.592;10.184;2023-04-19T12:15:58;102430.59;;;16.11;35.11
16016;BME280;8112;53.592;10.184;2023-04-19T12:21:01;102429.50;;;16.78;33.01
16016;BME280;8112;53.592;10.184;2023-04-19T12:26:04;102415.13;;;16.50;35.04
16016;BME280;8112;53.592;10.184;2023-04-19T12:31:05;102421.44;;;16.79;35.73
16016;BME280;8112;53.592;10.184;2023-04-19T12:36:09;102408.13;;;16.79;35.90
16016;BME280;8112;53.592;10.184;2023-04-19T12:41:10;102397.50;;;16.17;36.93
16016;BME280;8112;53.592;10.184;2023-04-19T12:46:12;102409.78;;;15.86;39.76
16016;BME280;8112;53.592;10.184;2023-04-19T12:51:16;102407.19;;;15.68;40.01
16016;BME280;8112;53.592;10.184;2023-04-19T12:56:24;102388.13;;;15.93;37.96
16016;BME280;8112;53.592;10.184;2023-04-19T13:01:26;102398.47;;;15.32;39.86
16016;BME280;8112;53.592;10.184;2023-04-19T13:06:29;102395.16;;;15.27;37.60
16016;BME280;8112;53.592;10.184;2023-04-19T13:11:31;102404.97;;;15.09;37.57
16016;BME280;8112;53.592;10.184;2023-04-19T13:16:33;102358.31;;;15.21;36.06
16016;BME280;8112;53.592;10.184;2023-04-19T13:21:36;102375.16;;;15.37;36.09
16016;BME280;8112;53.592;10.184;2023-04-19T13:26:38;102373.47;;;15.52;36.65
16016;BME280;8112;53.592;10.184;2023-04-19T13:31:40;102356.66;;;16.02;36.79
16016;BME280;8112;53.592;10.184;2023-04-19T13:36:44;102355.13;;;16.14;35.66
16016;BME280;8112;53.592;10.184;2023-04-19T13:41:46;102362.31;;;15.95;35.28
16016;BME280;8112;53.592;10.184;2023-04-19T13:46:47;102355.94;;;15.82;35.25
16016;BME280;8112;53.592;10.184;2023-04-19T13:51:50;102370.97;;;16.62;33.05
16016;BME280;8112;53.592;10.184;2023-04-19T13:56:52;102350.69;;;16.90;35.22
16016;BME280;8112;53.592;10.184;2023-04-19T14:01:54;102349.31;;;16.37;34.84
16016;BME280;8112;53.592;10.184;2023-04-19T14:06:57;102368.16;;;15.19;34.37
16016;BME280;8112;53.592;10.184;2023-04-19T14:11:59;102350.34;;;13.77;36.62
16016;BME280;8112;53.592;10.184;2023-04-19T14:17:01;102368.50;;;14.23;37.63
16016;BME280;8112;53.592;10.184;2023-04-19T14:22:04;102337.34;;;14.09;35.96
16016;BME280;8112;53.592;10.184;2023-04-19T14:27:06;102325.78;;;14.29;38.24
16016;BME280;8112;53.592;10.184;2023-04-19T14:32:08;102325.16;;;14.94;35.64
16016;BME280;8112;53.592;10.184;2023-04-19T14:37:11;102333.50;;;14.51;36.73
16016;BME280;8112;53.592;10.184;2023-04-19T14:42:13;102312.53;;;14.47;37.75
16016;BME280;8112;53.592;10.184;2023-04-19T14:47:15;102317.19;;;14.42;36.42
16016;BME280;8112;53.592;10.184;2023-04-19T14:52:18;102303.94;;;13.68;37.50
16016;BME280;8112;53.592;10.184;2023-04-19T14:57:20;102311.88;;;13.68;36.09
16016;BME280;8112;53.592;10.184;2023-04-19T15:02:22;102303.38;;;14.70;36.37
16016;BME280;8112;53.592;10.184;2023-04-19T15:07:25;102306.72;;;15.91;35.58
16016;BME280;8112;53.592;10.184;2023-04-19T15:12:27;102294.19;;;16.09;34.47
16016;BME280;8112;53.592;10.184;2023-04-19T15:17:29;102294.41;;;16.36;31.59
16016;BME280;8112;53.592;10.184;2023-04-19T15:22:32;102287.63;;;15.18;31.39
16016;BME280;8112;53.592;10.184;2023-04-19T15:27:34;102299.34;;;13.91;32.60
16016;BME280;8112;53.592;10.184;2023-04-19T15:32:36;102283.53;;;13.70;34.13
16016;BME280;8112;53.592;10.184;2023-04-19T15:37:39;102279.00;;;14.46;34.54
16016;BME280;8112;53.592;10.184;2023-04-19T15:42:42;102271.56;;;15.21;31.86
16016;BME280;8112;53.592;10.184;2023-04-19T15:47:44;102274.13;;;16.19;32.77
16016;BME280;8112;53.592;10.184;2023-04-19T15:52:47;102266.06;;;16.35;31.92
16016;BME280;8112;53.592;10.184;2023-04-19T15:57:49;102262.38;;;17.12;31.37
16016;BME280;8112;53.592;10.184;2023-04-19T16:02:51;102281.19;;;15.40;32.83
16016;BME280;8112;53.592;10.184;2023-04-19T16:08:05;102262.69;;;16.62;31.54
16016;BME280;8112;53.592;10.184;2023-04-19T16:13:07;102264.69;;;16.73;32.97
16016;BME280;8112;53.592;10.184;2023-04-19T16:18:09;102266.09;;;14.03;33.49
16016;BME280;8112;53.592;10.184;2023-04-19T16:23:15;102285.28;;;13.89;37.24
16016;BME280;8112;53.592;10.184;2023-04-19T16:28:18;102267.25;;;13.39;35.77
16016;BME280;8112;53.592;10.184;2023-04-19T16:33:20;102267.97;;;13.05;37.82
16016;BME280;8112;53.592;10.184;2023-04-19T16:38:23;102274.75;;;12.71;38.62
16016;BME280;8112;53.592;10.184;2023-04-19T16:43:25;102282.72;;;12.48;39.01
16016;BME280;8112;53.592;10.184;2023-04-19T16:48:27;102272.50;;;11.96;41.03
16016;BME280;8112;53.592;10.184;2023-04-19T16:53:31;102274.78;;;12.05;41.64
16016;BME280;8112;53.592;10.184;2023-04-19T16:58:32;102274.34;;;11.94;42.20
16016;BME280;8112;53.592;10.184;2023-04-19T17:03:34;102273.91;;;11.82;41.77
16016;BME280;8112;53.592;10.184;2023-04-19T17:08:37;102274.41;;;11.46;42.38
16016;BME280;8112;53.592;10.184;2023-04-19T17:13:39;102254.00;;;11.27;42.25
16016;BME280;8112;53.592;10.184;2023-04-19T17:18:48;102262.44;;;11.14;44.18
16016;BME280;8112;53.592;10.184;2023-04-19T17:23:52;102259.31;;;11.02;46.48
16016;BME280;8112;53.592;10.184;2023-04-19T17:28:53;102259.84;;;11.12;45.42
16016;BME280;8112;53.592;10.184;2023-04-19T17:33:55;102260.88;;;11.08;47.62
16016;BME280;8112;53.592;10.184;2023-04-19T17:39:00;102257.59;;;10.77;48.50
16016;BME280;8112;53.592;10.184;2023-04-19T17:44:03;102270.59;;;10.57;51.49
16016;BME280;8112;53.592;10.184;2023-04-19T17:49:04;102265.84;;;10.39;51.80
16016;BME280;8112;53.592;10.184;2023-04-19T17:54:09;102277.00;;;10.21;50.73
16016;BME280;8112;53.592;10.184;2023-04-19T17:59:11;102270.22;;;10.13;51.98
16016;BME280;8112;53.592;10.184;2023-04-19T18:04:12;102272.00;;;9.84;52.42
16016;BME280;8112;53.592;10.184;2023-04-19T18:09:19;102271.88;;;9.61;54.44
16016;BME280;8112;53.592;10.184;2023-04-19T18:14:21;102261.88;;;9.42;55.92
16016;BME280;8112;53.592;10.184;2023-04-19T18:19:23;102270.09;;;9.31;57.16
16016;BME280;8112;53.592;10.184;2023-04-19T18:24:27;102259.06;;;9.18;59.09
16016;BME280;8112;53.592;10.184;2023-04-19T18:29:28;102257.41;;;9.14;61.51
16016;BME280;8112;53.592;10.184;2023-04-19T18:34:30;102251.56;;;9.04;62.43
16016;BME280;8112;53.592;10.184;2023-04-19T18:39:33;102255.19;;;9.00;64.26
16016;BME280;8112;53.592;10.184;2023-04-19T18:44:35;102257.13;;;8.93;65.30
16016;BME280;8112;53.592;10.184;2023-04-19T18:49:37;102255.81;;;8.77;67.73
16016;BME280;8112;53.592;10.184;2023-04-19T18:54:40;102242.97;;;8.66;69.18
16016;BME280;8112;53.592;10.184;2023-04-19T18:59:42;102253.63;;;8.61;71.68
16016;BME280;8112;53.592;10.184;2023-04-19T19:04:45;102255.06;;;8.73;74.70
16016;BME280;8112;53.592;10.184;2023-04-19T19:09:48;102239.31;;;8.72;75.27
16016;BME280;8112;53.592;10.184;2023-04-19T19:14:49;102238.00;;;8.55;76.94
16016;BME280;8112;53.592;10.184;2023-04-19T19:19:51;102231.00;;;8.54;77.99
16016;BME280;8112;53.592;10.184;2023-04-19T19:24:54;102229.19;;;8.56;78.85
16016;BME280;8112;53.592;10.184;2023-04-19T19:29:56;102232.53;;;8.28;80.89
16016;BME280;8112;53.592;10.184;2023-04-19T19:34:59;102232.81;;;8.17;83.69
16016;BME280;8112;53.592;10.184;2023-04-19T19:40:08;102235.63;;;8.08;86.56
16016;BME280;8112;53.592;10.184;2023-04-19T19:45:10;102231.47;;;7.99;89.38
16016;BME280;8112;53.592;10.184;2023-04-19T19:50:12;102234.28;;;7.91;91.53
16016;BME280;8112;53.592;10.184;2023-04-19T19:55:15;102244.00;;;7.88;94.92
16016;BME280;8112;53.592;10.184;2023-04-19T20:00:17;102242.94;;;7.95;97.09
16016;BME280;8112;53.592;10.184;2023-04-19T20:05:19;102244.22;;;8.16;96.99
16016;BME280;8112;53.592;10.184;2023-04-19T20:10:22;102227.19;;;8.31;98.68
16016;BME280;8112;53.592;10.184;2023-04-19T20:15:24;102220.84;;;8.40;100.00
16016;BME280;8112;53.592;10.184;2023-04-19T20:20:26;102213.50;;;8.54;100.00
16016;BME280;8112;53.592;10.184;2023-04-19T20:25:29;102220.22;;;8.65;100.00
16016;BME280;8112;53.592;10.184;2023-04-19T20:30:31;102231.50;;;8.68;100.00
16016;BME280;8112;53.592;10.184;2023-04-19T20:35:33;102272.03;;;8.60;100.00
16016;BME280;8112;53.592;10.184;2023-04-19T20:40:37;102243.59;;;8.05;100.00
16016;BME280;8112;53.592;10.184;2023-04-19T20:45:38;102200.88;;;7.98;100.00
16016;BME280;8112;53.592;10.184;2023-04-19T20:50:40;102191.78;;;8.11;100.00
16016;BME280;8112;53.592;10.184;2023-04-19T20:55:44;102182.03;;;8.17;100.00
16016;BME280;8112;53.592;10.184;2023-04-19T21:00:47;102182.44;;;8.36;100.00
16016;BME280;8112;53.592;10.184;2023-04-19T21:05:49;102186.44;;;8.51;100.00
16016;BME280;8112;53.592;10.184;2023-04-19T21:10:58;102159.63;;;8.69;100.00
16016;BME280;8112;53.592;10.184;2023-04-19T21:16:01;102157.88;;;8.70;100.00
16016;BME280;8112;53.592;10.184;2023-04-19T21:21:03;102157.59;;;8.81;100.00
16016;BME280;8112;53.592;10.184;2023-04-19T21:26:14;102145.19;;;8.84;100.00
16016;BME280;8112;53.592;10.184;2023-04-19T21:31:18;102130.97;;;8.92;98.44
16016;BME280;8112;53.592;10.184;2023-04-19T21:36:20;102123.03;;;8.93;94.56
16016;BME280;8112;53.592;10.184;2023-04-19T21:41:23;102109.88;;;8.93;92.67
16016;BME280;8112;53.592;10.184;2023-04-19T21:46:25;102106.88;;;9.06;89.63
16016;BME280;8112;53.592;10.184;2023-04-19T21:51:27;102101.59;;;9.07;86.39
16016;BME280;8112;53.592;10.184;2023-04-19T21:56:30;102103.25;;;9.10;84.90
16016;BME280;8112;53.592;10.184;2023-04-19T22:01:32;102081.25;;;9.12;82.53
16016;BME280;8112;53.592;10.184;2023-04-19T22:06:34;102086.56;;;9.11;79.02
16016;BME280;8112;53.592;10.184;2023-04-19T22:11:37;102115.88;;;8.98;85.15
16016;BME280;8112;53.592;10.184;2023-04-19T22:16:39;102099.31;;;8.32;100.00
16016;BME280;8112;53.592;10.184;2023-04-19T22:21:41;102086.44;;;8.24;100.00
16016;BME280;8112;53.592;10.184;2023-04-19T22:26:44;102090.59;;;8.31;100.00
16016;BME280;8112;53.592;10.184;2023-04-19T22:31:46;102057.50;;;8.57;98.76
16016;BME280;8112;53.592;10.184;2023-04-19T22:36:47;102057.25;;;8.66;94.98
16016;BME280;8112;53.592;10.184;2023-04-19T22:41:51;102055.41;;;8.68;92.72
16016;BME280;8112;53.592;10.184;2023-04-19T22:46:52;102034.91;;;7.87;100.00
16016;BME280;8112;53.592;10.184;2023-04-19T22:51:54;102039.50;;;7.78;100.00
16016;BME280;8112;53.592;10.184;2023-04-19T22:56:59;102039.22;;;8.21;100.00
16016;BME280;8112;53.592;10.184;2023-04-19T23:02:01;102035.66;;;8.23;100.00
16016;BME280;8112;53.592;10.184;2023-04-19T23:07:03;102029.31;;;8.31;100.00
16016;BME280;8112;53.592;10.184;2023-04-19T23:12:06;102020.03;;;8.50;98.42
16016;BME280;8112;53.592;10.184;2023-04-19T23:17:08;101996.84;;;8.35;99.78
16016;BME280;8112;53.592;10.184;2023-04-19T23:22:10;101996.41;;;8.19;100.00
16016;BME280;8112;53.592;10.184;2023-04-19T23:27:13;101980.16;;;8.04;100.00
16016;BME280;8112;53.592;10.184;2023-04-19T23:32:14;101981.38;;;8.24;100.00
16016;BME280;8112;53.592;10.184;2023-04-19T23:37:17;101967.06;;;8.34;100.00
16016;BME280;8112;53.592;10.184;2023-04-19T23:42:20;101984.94;;;8.21;100.00
16016;BME280;8112;53.592;10.184;2023-04-19T23:47:22;101983.81;;;8.30;100.00
16016;BME280;8112;53.592;10.184;2023-04-19T23:52:24;101984.00;;;8.24;100.00
16016;BME280;8112;53.592;10.184;2023-04-19T23:57:28;101971.72;;;8.24;100.00
